createdAt,value
2023-02-02T00:01:46.869Z,31.20
2023-02-02T00:04:26.559Z,26.60
2023-02-02T00:06:57.350Z,31.00
2023-02-02T00:09:29.215Z,26.90
2023-02-02T00:11:59.569Z,25.70
2023-02-02T00:14:28.675Z,31.80
2023-02-02T00:16:57.608Z,28.90
2023-02-02T00:19:28.227Z,26.80
2023-02-02T00:21:57.151Z,26.90
2023-02-02T00:24:25.747Z,31.10
2023-02-02T00:26:58.566Z,30.10
2023-02-02T00:29:28.771Z,26.20
2023-02-02T00:31:57.468Z,28.70
2023-02-02T00:34:25.989Z,28.70
2023-02-02T00:36:54.521Z,25.70
2023-02-02T00:39:28.251Z,23.60
2023-02-02T00:44:44.647Z,22.20
2023-02-02T00:47:14.152Z,28.50
2023-02-02T00:49:42.857Z,24.60
2023-02-02T00:52:12.751Z,26.10
2023-02-02T00:54:41.647Z,26.90
2023-02-02T00:57:13.968Z,26.30
2023-02-02T00:59:42.985Z,28.20
2023-02-02T01:02:12.461Z,25.50
2023-02-02T01:04:41.420Z,33.00
2023-02-02T01:07:10.327Z,29.50
2023-02-02T01:09:39.221Z,27.60
2023-02-02T01:12:11.078Z,24.30
2023-02-02T01:14:39.729Z,26.60
2023-02-02T01:17:09.804Z,26.10
2023-02-02T01:19:38.948Z,26.50
2023-02-02T01:22:08.257Z,25.70
2023-02-02T01:24:37.338Z,25.90
2023-02-02T01:27:06.034Z,28.00
2023-02-02T01:29:34.972Z,25.30
2023-02-02T01:32:03.625Z,29.60
2023-02-02T01:34:33.309Z,25.00
2023-02-02T01:37:02.389Z,23.30
2023-02-02T01:39:31.358Z,24.20
2023-02-02T01:42:00.761Z,25.30
2023-02-02T01:45:06.759Z,25.80
2023-02-02T01:47:52.715Z,23.40
2023-02-02T01:50:23.393Z,24.40
2023-02-02T01:52:54.421Z,26.80
2023-02-02T01:55:25.206Z,27.20
2023-02-02T01:58:11.544Z,25.30
2023-02-02T02:00:40.391Z,23.60
2023-02-02T02:03:13.235Z,25.40
2023-02-02T02:05:45.287Z,22.70
2023-02-02T02:08:17.579Z,21.10
2023-02-02T06:19:33.740Z,40.80
2023-02-02T06:22:02.289Z,33.00
2023-02-02T06:24:31.287Z,41.40
2023-02-02T06:27:00.099Z,34.20
2023-02-02T06:29:28.796Z,37.90
2023-02-02T06:31:57.618Z,34.70
2023-02-02T06:34:26.255Z,30.30
2023-02-02T06:36:54.985Z,37.10
2023-02-02T06:39:23.797Z,35.50
2023-02-02T06:41:52.508Z,35.70
2023-02-02T06:44:21.260Z,33.00
2023-02-02T06:46:50.191Z,34.90
2023-02-02T06:49:18.670Z,41.60
2023-02-02T06:51:48.782Z,40.00
2023-02-02T06:54:18.938Z,36.50
2023-02-02T06:56:47.438Z,37.00
2023-02-02T06:59:15.963Z,41.50
2023-02-02T07:01:44.683Z,38.70
2023-02-02T07:04:13.815Z,36.00
2023-02-02T07:06:42.590Z,32.60
2023-02-02T07:09:11.184Z,34.20
2023-02-02T07:11:43.685Z,31.90
2023-02-02T07:14:15.090Z,35.70
2023-02-02T07:16:44.808Z,36.20
2023-02-02T07:19:13.832Z,31.30
2023-02-02T07:21:43.129Z,30.60
2023-02-02T07:24:11.821Z,30.30
2023-02-02T07:26:41.032Z,30.20
2023-02-02T07:29:14.600Z,27.00
2023-02-02T07:31:43.612Z,27.80
2023-02-02T07:34:13.098Z,40.30
2023-02-02T07:36:42.936Z,33.00
2023-02-02T07:39:11.930Z,31.00
2023-02-02T07:41:40.856Z,33.30
2023-02-02T07:44:16.632Z,43.10
2023-02-02T07:46:47.516Z,35.80
2023-02-02T07:49:17.673Z,38.40
2023-02-02T07:51:49.327Z,34.60
2023-02-02T07:54:18.126Z,35.80
2023-02-02T07:56:47.292Z,28.30
2023-02-02T07:59:15.852Z,26.00
2023-02-02T08:01:48.236Z,26.70
2023-02-02T08:04:17.609Z,26.30
2023-02-02T08:06:46.429Z,27.30
2023-02-02T08:09:14.947Z,28.30
2023-02-02T08:32:22.749Z,25.80
2023-02-02T08:34:56.018Z,29.70
2023-02-02T08:37:24.453Z,28.80
2023-02-02T08:39:53.165Z,30.10
2023-02-02T08:42:21.720Z,29.40
2023-02-02T08:46:00.355Z,26.30
2023-02-02T08:47:42.700Z,26.80
2023-02-02T08:50:13.519Z,27.50
2023-02-02T08:52:44.461Z,37.00
2023-02-02T08:55:16.843Z,29.90
2023-02-02T08:57:47.870Z,26.40
2023-02-02T09:00:20.746Z,23.80
2023-02-02T09:02:52.805Z,26.90
2023-02-02T09:05:24.387Z,25.30
2023-02-02T09:07:55.311Z,25.10
2023-02-02T09:10:25.943Z,25.60
2023-02-02T09:12:57.590Z,24.90
2023-02-02T09:18:00.395Z,32.20
2023-02-02T09:20:33.811Z,34.80
2023-02-02T09:23:04.524Z,30.10
2023-02-02T09:25:36.284Z,26.20
2023-02-02T09:28:07.838Z,24.50
2023-02-02T09:30:40.449Z,24.50
2023-02-02T09:33:11.763Z,26.10
2023-02-02T09:35:45.342Z,27.60
2023-02-02T09:38:15.704Z,27.10
2023-02-02T09:40:44.478Z,25.50
2023-02-02T09:43:35.192Z,23.90
2023-02-02T09:46:12.840Z,33.00
2023-02-02T09:49:07.952Z,21.20
2023-02-02T09:51:41.082Z,27.30
2023-02-02T09:56:44.939Z,22.70
2023-02-02T09:59:24.814Z,19.60
2023-02-02T10:01:58.545Z,21.70
2023-02-02T10:04:27.168Z,18.90
2023-02-02T10:06:58.027Z,21.50
2023-02-02T10:09:56.351Z,19.90
2023-02-02T10:12:37.421Z,21.30
2023-02-02T10:15:24.873Z,19.70
2023-02-02T10:18:44.051Z,21.20
2023-02-02T10:21:19.368Z,19.40
2023-02-02T10:23:48.670Z,19.80
2023-02-02T10:27:30.181Z,82.20
2023-02-02T10:30:02.836Z,26.10
2023-02-02T10:33:37.567Z,21.60
2023-02-02T10:36:18.385Z,20.50
2023-02-02T10:39:00.995Z,18.70
2023-02-02T10:41:59.301Z,23.70
2023-02-02T10:44:41.770Z,19.80
2023-02-02T10:47:13.249Z,21.40
2023-02-02T10:49:41.920Z,21.60
2023-02-02T10:52:11.382Z,22.60
2023-02-02T10:54:57.423Z,18.50
2023-02-02T10:58:01.224Z,17.20
2023-02-02T11:00:39.424Z,18.80
2023-02-02T11:03:09.732Z,20.10
2023-02-02T11:05:57.168Z,17.30
2023-02-02T11:08:30.752Z,17.50
2023-02-02T11:11:19.247Z,17.60
2023-02-02T11:14:10.620Z,16.90
2023-02-02T11:16:44.244Z,18.80
2023-02-02T11:19:22.440Z,17.30
2023-02-02T11:21:53.666Z,19.70
2023-02-02T11:24:23.368Z,18.20
2023-02-02T11:26:56.143Z,18.50
2023-02-02T11:29:28.121Z,18.50
2023-02-02T11:31:57.072Z,16.70
2023-02-02T11:34:27.111Z,16.10
2023-02-02T11:37:13.390Z,15.90
2023-02-02T11:39:43.817Z,17.10
2023-02-02T11:42:15.086Z,17.70
2023-02-02T11:44:56.060Z,14.20
2023-02-02T11:47:29.506Z,12.40
2023-02-02T11:49:59.687Z,31.70
2023-02-02T11:52:32.705Z,20.50
2023-02-02T11:55:02.459Z,14.30
2023-02-02T11:57:31.899Z,16.50
2023-02-02T12:00:17.781Z,12.80
2023-02-02T12:02:48.755Z,11.60
2023-02-02T12:05:20.455Z,10.30
2023-02-02T12:07:49.812Z,10.90
2023-02-02T12:10:42.223Z,11.50
2023-02-02T12:13:43.826Z,10.10
2023-02-02T12:16:26.488Z,11.40
2023-02-02T12:19:17.489Z,15.10
2023-02-02T12:22:19.538Z,10.90
2023-02-02T12:25:14.608Z,13.10
2023-02-02T12:27:43.712Z,12.60
2023-02-02T12:30:28.696Z,13.90
2023-02-02T12:33:09.268Z,11.80
2023-02-02T12:36:01.306Z,16.20
2023-02-02T12:38:46.704Z,17.10
2023-02-02T12:41:18.920Z,13.80
2023-02-02T12:44:15.413Z,12.70
2023-02-02T12:47:15.200Z,8.70
2023-02-02T12:50:13.049Z,5.90
2023-02-02T12:53:07.372Z,10.00
2023-02-02T12:55:57.995Z,11.50
2023-02-02T12:58:40.490Z,9.30
2023-02-02T13:01:57.253Z,10.00
2023-02-02T13:04:52.692Z,14.10
2023-02-02T13:07:52.159Z,8.00
2023-02-02T13:10:38.401Z,10.80
2023-02-02T13:13:18.437Z,12.20
2023-02-02T13:15:48.776Z,11.90
2023-02-02T13:18:27.918Z,10.40
2023-02-02T13:21:10.999Z,12.30
2023-02-02T13:23:50.761Z,12.10
2023-02-02T13:26:20.946Z,10.90
2023-02-02T13:29:11.751Z,11.10
2023-02-02T13:32:23.854Z,10.90
2023-02-02T13:35:11.240Z,13.50
2023-02-02T13:37:39.940Z,14.00
2023-02-02T13:40:27.325Z,20.30
2023-02-02T13:43:04.238Z,17.60
2023-02-02T13:46:03.026Z,15.90
2023-02-02T13:49:08.643Z,13.00
2023-02-02T13:51:51.332Z,12.10
2023-02-02T13:55:01.080Z,16.50
2023-02-02T13:57:46.296Z,16.90
2023-02-02T14:00:22.565Z,13.40
2023-02-02T14:03:04.171Z,15.40
2023-02-02T14:05:38.636Z,13.40
2023-02-02T14:08:23.459Z,20.40
2023-02-02T14:10:57.630Z,19.30
2023-02-02T14:13:48.416Z,21.20
2023-02-02T14:32:00.599Z,20.40
2023-02-02T14:34:29.283Z,19.60
2023-02-02T14:37:24.089Z,26.60
2023-02-02T14:40:10.788Z,20.90
2023-02-02T14:43:22.083Z,19.10
2023-02-02T14:46:13.114Z,21.50
2023-02-02T14:48:50.121Z,20.10
2023-02-02T14:51:29.575Z,19.50
2023-02-02T14:54:05.248Z,24.60
2023-02-02T14:56:50.008Z,23.10
2023-02-02T14:59:38.801Z,23.80
2023-02-02T15:02:20.013Z,21.90
2023-02-02T15:04:49.158Z,26.60
2023-02-02T15:07:23.904Z,21.10
2023-02-02T15:09:56.782Z,18.40
2023-02-02T15:12:40.124Z,21.60
2023-02-02T18:25:53.264Z,20.90
2023-02-02T18:28:21.845Z,22.10
2023-02-02T18:30:50.691Z,20.20
2023-02-02T18:33:20.273Z,18.60
2023-02-02T18:35:49.379Z,19.30
2023-02-02T18:38:19.894Z,20.80
2023-02-02T18:40:56.281Z,18.00
2023-02-02T18:43:26.911Z,22.50
2023-02-02T18:46:02.799Z,28.10
2023-02-02T18:48:31.959Z,24.30
2023-02-02T18:51:07.537Z,22.10
2023-02-02T18:53:36.475Z,22.00
2023-02-02T18:56:08.921Z,24.90
2023-02-02T18:58:38.501Z,26.70
2023-02-02T19:01:10.944Z,20.70
2023-02-02T19:03:40.582Z,24.60
2023-02-02T19:06:28.056Z,20.30
2023-02-02T19:09:00.624Z,18.30
2023-02-02T19:11:43.236Z,14.70
2023-02-02T19:14:15.848Z,19.70
2023-02-02T19:16:46.452Z,14.40
2023-02-02T19:19:25.252Z,19.00
2023-02-02T19:21:56.401Z,18.30
2023-02-02T19:24:26.917Z,16.40
2023-02-02T19:26:55.717Z,16.50
2023-02-02T19:29:26.522Z,18.50
2023-02-02T19:32:07.633Z,13.70
2023-02-02T19:34:36.415Z,14.50
2023-02-02T19:37:20.418Z,14.30
2023-02-02T19:39:49.116Z,15.90
2023-02-02T19:42:18.556Z,18.80
2023-02-02T19:44:50.452Z,13.10
2023-02-02T19:47:28.340Z,15.10
2023-02-02T19:49:56.891Z,12.90
2023-02-02T19:52:26.009Z,15.20
2023-02-02T19:54:54.575Z,14.90
2023-02-02T19:57:36.969Z,16.80
2023-02-02T20:00:22.703Z,14.90
2023-02-02T20:02:59.988Z,16.90
2023-02-02T20:05:33.113Z,16.20
2023-02-02T20:08:06.218Z,13.20
2023-02-02T20:10:39.543Z,14.50
2023-02-02T20:13:31.785Z,15.00
2023-02-02T20:16:04.384Z,18.50
2023-02-02T20:18:44.900Z,15.50
2023-02-02T20:21:26.776Z,15.00
2023-02-02T20:23:55.180Z,15.50
2023-02-02T20:26:26.160Z,11.80
2023-02-02T20:28:56.627Z,14.20
2023-02-02T20:31:35.837Z,13.00
2023-02-02T20:34:33.134Z,10.30
2023-02-02T20:37:16.421Z,9.80
2023-02-02T20:39:50.423Z,15.70
2023-02-02T20:42:19.258Z,14.20
2023-02-02T20:44:47.849Z,12.80
2023-02-02T20:47:16.529Z,10.70
2023-02-02T20:49:45.216Z,9.10
2023-02-02T20:52:22.098Z,14.20
2023-02-02T20:54:51.510Z,9.90
2023-02-02T20:57:20.116Z,9.20
2023-02-02T20:59:48.616Z,11.40
2023-02-02T21:02:19.758Z,9.90
2023-02-02T21:04:48.450Z,12.10
2023-02-02T21:07:17.892Z,8.60
2023-02-02T21:09:47.761Z,9.50
2023-02-02T21:12:16.607Z,10.50
2023-02-02T21:14:45.586Z,11.80
2023-02-02T21:17:16.031Z,11.50
2023-02-02T21:19:45.525Z,9.50
2023-02-02T21:22:14.400Z,11.90
2023-02-02T21:24:43.826Z,10.60
2023-02-02T21:27:12.313Z,11.40
2023-02-02T21:29:40.989Z,11.00
2023-02-02T21:32:09.546Z,10.40
2023-02-02T21:34:38.417Z,12.50
2023-02-02T21:37:12.599Z,9.90
2023-02-02T21:40:00.246Z,19.10
2023-02-02T21:42:28.614Z,12.30
2023-02-02T21:44:58.524Z,11.70
2023-02-02T21:47:37.031Z,11.60
2023-02-02T21:50:16.465Z,12.10
2023-02-02T21:52:45.030Z,9.20
2023-02-02T21:55:37.476Z,10.50
2023-02-02T21:58:27.971Z,8.70
2023-02-02T22:01:02.913Z,9.70
2023-02-02T22:03:35.166Z,8.90
2023-02-02T22:06:28.625Z,11.50
